Portada
METAR-TAF:

METAR-TAF

Aeroports :

La Grande-4, Quebec, Canadà

latitud: 53-45N, longitud: 073-40W, altitud: 306 m

Observació

L'informe es va fer fa 58 minuts, a les 19:00 UTC
Vent 7 kt del Nord/Nord-Est
Temperatura 10°C
Humitat 87%
Pressió 1011 hPa
Visibilitat: 14.5 km
Cel cobert a una alçada de 1600 ft

METAR: CYAH 151900Z AUTO 03007KT 9SM OVC016 10/08 A2986 RMK SLP126

Hora: 15:58 (19:58 UTC)

Pronòstic

L'informe es va fer fa 2 hores i 19 minuts, a les 17:39 UTC
Pronòstic vàlid del 15 a les 18 UTC al 15 a les 21 UTC
Vent 12 kt del Nord-Est
Visibilitat: 8.0 km
Cel cobert a una alçada de 1500 ft
xàfecs de pluja, boirina
Temporalment
l' 15 a les 18 UTC al 15 a les 21 UTC
Visibilitat: 10 km
Núvols disperses a una alçada de 1500 ft
Cel cobert a una alçada de 2500 ft

TAF: CYAH 151739Z 1518/1521 04012KT 5SM -SHRA BR OVC015 TEMPO 1518/1521 P6SM NSW SCT015 OVC025 RMK FCST BASED ON AUTO OBS. NXT FCST WILL BE ISSUED AT 161045Z

Observacions i pronòstics meteorològics de més de 4000 aeroports (METAR i TAF).

Les estacions disponibles són els punts grocs i vermells al mapa.

Posi el ratolí al punt desitjat per veure el nom de l'estació.

Feu clic per veure les observacions i els pronòstics meteorològics.

Per canviar el mapa: feu clic els botons verds amb una creu de color negre per apropar; al botó verd amb un guió per allunyar la imatge; o en les fletxes verdes per a mapes adjacents.


METAR-TAF: